createdAt,value
2023-04-09T00:04:46.862Z,61896.75
2023-04-09T00:09:49.713Z,61885.28
2023-04-09T00:14:53.646Z,61929.88
2023-04-09T00:19:56.276Z,61894.00
2023-04-09T00:24:59.610Z,61903.31
2023-04-09T00:30:03.527Z,61913.25
2023-04-09T00:35:06.951Z,61870.09
2023-04-09T00:40:09.849Z,61900.72
2023-04-09T00:45:13.855Z,61889.75
2023-04-09T00:50:17.738Z,61878.72
2023-04-09T00:55:22.294Z,61876.00
2023-04-09T01:00:27.646Z,61904.63
2023-04-09T01:05:44.882Z,61892.63
2023-04-09T01:10:55.259Z,61911.81
2023-04-09T01:16:02.987Z,61870.28
2023-04-09T01:21:10.870Z,61906.63
2023-04-09T01:26:23.698Z,61886.31
2023-04-09T01:31:31.757Z,61877.88
2023-04-09T01:36:36.747Z,61891.84
2023-04-09T01:41:41.315Z,61896.13
2023-04-09T01:46:47.691Z,61875.22
2023-04-09T01:51:51.200Z,61884.00
2023-04-09T01:56:53.622Z,61881.88
2023-04-09T02:02:02.363Z,61863.66
2023-04-09T02:07:11.100Z,61848.56
2023-04-09T02:12:17.440Z,61866.66
2023-04-09T02:17:21.565Z,61835.00
2023-04-09T02:22:24.265Z,61876.03
2023-04-09T02:27:26.843Z,61859.41
2023-04-09T02:32:30.932Z,61856.22
2023-04-09T02:37:33.537Z,61860.34
2023-04-09T02:42:36.097Z,61859.81
2023-04-09T02:47:40.203Z,61841.13
2023-04-09T02:52:42.765Z,61851.50
2023-04-09T02:57:45.636Z,61871.22
2023-04-09T03:02:49.715Z,61848.84
2023-04-09T03:07:52.397Z,61837.94
2023-04-09T03:12:54.984Z,61821.31
2023-04-09T03:17:59.056Z,61826.97
2023-04-09T03:23:01.676Z,61842.41
2023-04-09T03:28:04.504Z,61826.25
2023-04-09T03:33:08.507Z,61817.47
2023-04-09T03:38:11.281Z,61811.69
2023-04-09T03:43:13.916Z,61863.03
2023-04-09T03:48:17.913Z,61835.94
2023-04-09T03:53:20.507Z,61794.94
2023-04-09T03:58:23.058Z,61831.31
2023-04-09T04:03:27.187Z,61842.13
2023-04-09T04:08:30.106Z,61857.28
2023-04-09T04:13:32.751Z,61848.97
2023-04-09T04:18:36.725Z,61787.59
2023-04-09T04:23:39.256Z,61822.69
2023-04-09T04:28:42.077Z,61814.34
2023-04-09T04:33:46.022Z,61810.56
2023-04-09T04:38:48.647Z,61807.25
2023-04-09T04:43:51.256Z,61763.75
2023-04-09T04:48:55.245Z,61750.94
2023-04-09T04:53:57.843Z,61716.88
2023-04-09T04:59:01.554Z,61716.03
2023-04-09T05:04:05.588Z,61665.22
2023-04-09T05:09:08.201Z,61618.81
2023-04-09T05:14:10.906Z,61647.47
2023-04-09T05:19:14.820Z,61616.44
2023-04-09T05:24:17.411Z,61644.94
2023-04-09T05:29:21.139Z,61648.13
2023-04-09T05:34:25.220Z,61661.13
2023-04-09T05:39:27.773Z,61658.59
2023-04-09T05:44:30.584Z,61684.66
2023-04-09T05:49:34.655Z,61648.63
2023-04-09T05:54:37.286Z,61684.13
2023-04-09T05:59:39.938Z,61678.22
2023-04-09T06:04:43.943Z,61684.91
2023-04-09T06:09:46.876Z,61706.16
2023-04-09T06:14:49.626Z,61733.44
2023-04-09T06:19:54.775Z,61762.56
2023-04-09T06:24:57.310Z,61781.19
2023-04-09T06:29:59.856Z,61851.09
2023-04-09T06:35:03.837Z,62034.75
2023-04-09T06:40:08.075Z,62184.84
2023-04-09T06:45:12.053Z,62264.56
2023-04-09T06:50:16.236Z,62348.06
2023-04-09T06:55:19.364Z,62399.16
2023-04-09T07:00:23.030Z,62439.22
2023-04-09T07:05:27.062Z,62489.66
2023-04-09T07:10:30.156Z,62503.19
2023-04-09T07:15:32.924Z,62575.66
2023-04-09T07:20:36.895Z,62726.03
2023-04-09T07:25:39.514Z,62807.84
2023-04-09T07:30:42.202Z,62680.09
2023-04-09T07:35:46.961Z,62686.78
2023-04-09T07:40:49.650Z,62903.28
2023-04-09T07:45:52.524Z,62807.41
2023-04-09T07:50:56.752Z,62867.28
2023-04-09T07:55:59.419Z,62800.31
2023-04-09T08:01:02.050Z,62837.78
2023-04-09T08:06:06.620Z,62717.69
2023-04-09T08:11:09.260Z,62676.25
2023-04-09T08:16:11.840Z,62635.22
2023-04-09T08:21:15.853Z,62746.06
2023-04-09T08:26:18.651Z,62661.78
2023-04-09T08:31:21.561Z,62598.59
2023-04-09T08:36:26.385Z,62714.25
2023-04-09T08:41:30.542Z,62705.19
2023-04-09T08:46:37.169Z,62875.13
2023-04-09T08:51:46.432Z,62954.41
2023-04-09T08:56:49.134Z,63037.63
2023-04-09T09:02:07.940Z,62980.72
2023-04-09T09:07:12.067Z,62977.50
2023-04-09T09:12:32.298Z,62971.88
2023-04-09T09:17:53.915Z,63009.47
2023-04-09T09:22:57.958Z,62919.97
2023-04-09T09:28:09.387Z,63074.22
2023-04-09T09:33:13.099Z,62948.78
2023-04-09T09:38:17.214Z,63059.06
2023-04-09T09:43:20.038Z,63092.59
2023-04-09T09:48:22.633Z,63079.97
2023-04-09T09:53:27.415Z,62972.84
2023-04-09T09:58:37.013Z,62972.13
2023-04-09T10:03:41.061Z,63090.59
2023-04-09T10:08:47.275Z,63012.91
2023-04-09T10:13:54.199Z,62970.94
2023-04-09T10:18:58.341Z,62918.16
2023-04-09T10:24:05.843Z,63023.97
2023-04-09T10:29:13.778Z,63003.16
2023-04-09T10:34:17.654Z,63098.72
2023-04-09T10:39:22.813Z,63158.13
2023-04-09T10:44:27.410Z,63002.16
2023-04-09T10:49:37.412Z,62924.28
2023-04-09T10:54:49.284Z,62941.34
2023-04-09T10:59:53.310Z,63029.66
2023-04-09T11:05:07.240Z,62891.38
2023-04-09T11:10:11.604Z,63032.59
2023-04-09T11:15:17.280Z,62958.19
2023-04-09T11:20:22.344Z,63029.66
2023-04-09T11:25:28.504Z,63034.84
2023-04-09T11:30:31.207Z,63068.06
2023-04-09T11:35:35.232Z,63001.84
2023-04-09T11:40:47.677Z,62881.41
2023-04-09T11:45:50.616Z,62965.97
2023-04-09T11:50:53.769Z,62811.06
2023-04-09T11:55:57.949Z,62634.81
2023-04-09T12:01:01.727Z,62734.81
2023-04-09T12:06:07.730Z,63020.34
2023-04-09T12:11:13.181Z,63020.16
2023-04-09T12:16:20.539Z,62849.28
2023-04-09T12:21:26.075Z,62750.22
2023-04-09T12:26:30.028Z,62892.78
2023-04-09T12:31:32.671Z,63062.50
2023-04-09T12:36:35.333Z,62912.81
2023-04-09T12:41:39.314Z,62716.13
2023-04-09T12:46:42.208Z,62827.63
2023-04-09T12:51:44.613Z,62767.09
2023-04-09T12:56:50.063Z,62831.50
2023-04-09T13:01:52.707Z,62753.78
2023-04-09T13:06:55.506Z,62680.63
2023-04-09T13:11:59.465Z,62908.13
2023-04-09T13:17:02.231Z,62836.44
2023-04-09T13:22:07.807Z,62740.38
2023-04-09T13:27:11.889Z,62635.47
2023-04-09T13:32:14.536Z,62841.81
2023-04-09T13:37:17.327Z,62814.00
2023-04-09T13:42:21.232Z,62782.78
2023-04-09T13:47:24.231Z,62691.13
2023-04-09T13:52:29.677Z,62606.31
2023-04-09T13:57:33.867Z,62560.06
2023-04-09T14:02:36.562Z,62807.41
2023-04-09T14:07:39.197Z,62895.25
2023-04-09T14:12:44.139Z,62879.41
2023-04-09T14:17:46.746Z,62890.91
2023-04-09T14:22:49.521Z,62895.22
2023-04-09T14:27:53.329Z,63032.50
2023-04-09T14:32:55.951Z,62824.44
2023-04-09T14:37:58.609Z,62684.94
2023-04-09T14:43:02.570Z,62676.66
2023-04-09T14:48:05.859Z,62651.91
2023-04-09T14:53:08.424Z,62679.06
2023-04-09T14:58:12.326Z,62660.34
2023-04-09T15:03:15.087Z,62692.75
2023-04-09T15:08:17.691Z,62713.75
2023-04-09T15:13:22.695Z,62703.88
2023-04-09T15:18:25.295Z,62840.78
2023-04-09T15:23:27.958Z,62901.16
2023-04-09T15:28:31.928Z,62892.13
2023-04-09T15:33:34.546Z,62942.84
2023-04-09T15:38:37.160Z,62955.88
2023-04-09T15:43:41.135Z,62837.56
2023-04-09T15:48:43.887Z,62729.31
2023-04-09T15:53:46.432Z,62761.53
2023-04-09T15:58:50.530Z,62729.22
2023-04-09T16:03:53.164Z,62674.25
2023-04-09T16:08:56.528Z,62648.53
2023-04-09T16:14:00.596Z,62616.28
2023-04-09T16:19:03.123Z,62692.03
2023-04-09T16:24:05.897Z,62736.81
2023-04-09T16:29:09.797Z,62769.09
2023-04-09T16:34:13.363Z,62792.66
2023-04-09T16:39:16.254Z,62745.97
2023-04-09T16:44:20.131Z,62737.41
2023-04-09T16:49:22.760Z,62697.91
2023-04-09T16:54:25.375Z,62513.44
2023-04-09T16:59:29.287Z,62555.09
2023-04-09T17:04:34.448Z,62438.09
2023-04-09T17:09:37.185Z,62448.06
2023-04-09T17:14:41.959Z,62385.78
2023-04-09T17:19:44.568Z,62382.28
2023-04-09T17:24:47.315Z,62386.41
2023-04-09T17:29:51.775Z,62371.81
2023-04-09T17:34:54.482Z,62330.88
2023-04-09T17:39:57.099Z,62282.69
2023-04-09T17:45:01.103Z,62263.94
2023-04-09T17:50:04.338Z,62280.28
2023-04-09T17:55:07.625Z,62209.19
2023-04-09T18:00:12.851Z,62195.09
2023-04-09T18:05:15.645Z,62158.00
2023-04-09T18:10:18.438Z,62148.00
2023-04-09T18:15:23.495Z,62113.41
2023-04-09T18:20:26.271Z,62109.38
2023-04-09T18:25:28.819Z,62065.75
2023-04-09T18:30:32.713Z,62027.75
2023-04-09T18:35:35.553Z,62023.22
2023-04-09T18:40:41.782Z,61996.50
2023-04-09T18:45:45.694Z,61961.44
2023-04-09T18:50:48.302Z,61927.06
2023-04-09T18:55:50.870Z,61911.31
2023-04-09T19:00:55.357Z,61921.38
2023-04-09T19:05:59.670Z,61868.94
2023-04-09T19:11:02.269Z,61907.69
2023-04-09T19:16:09.046Z,61905.22
2023-04-09T19:21:11.748Z,61879.75
2023-04-09T19:26:14.421Z,61859.06
2023-04-09T19:31:18.660Z,61893.88
2023-04-09T19:36:22.587Z,61886.44
2023-04-09T19:41:25.262Z,61884.19
2023-04-09T19:46:29.364Z,61860.41
2023-04-09T19:51:32.617Z,61874.19
2023-04-09T19:56:35.176Z,61829.22
2023-04-09T20:01:39.133Z,61839.22
2023-04-09T20:06:43.709Z,61802.19
2023-04-09T20:11:46.614Z,61783.38
2023-04-09T20:16:50.603Z,61790.34
2023-04-09T20:21:54.811Z,61804.69
2023-04-09T20:26:59.342Z,61820.72
2023-04-09T20:32:03.452Z,61800.56
2023-04-09T20:37:06.667Z,61804.22
2023-04-09T20:42:09.243Z,61772.53
2023-04-09T20:47:13.488Z,61785.00
2023-04-09T20:52:16.665Z,61769.75
2023-04-09T20:57:19.200Z,61779.91
2023-04-09T21:02:23.665Z,61741.97
2023-04-09T21:07:26.400Z,61761.19
2023-04-09T21:12:30.025Z,61759.22
2023-04-09T21:17:33.803Z,61752.75
2023-04-09T21:22:36.419Z,61745.19
2023-04-09T21:27:38.970Z,61750.81
2023-04-09T21:32:43.060Z,61720.28
2023-04-09T21:37:45.970Z,61734.53
2023-04-09T21:42:48.525Z,61735.88
2023-04-09T21:47:52.558Z,61695.31
2023-04-09T21:52:55.296Z,61688.59
2023-04-09T21:57:57.955Z,61701.44
2023-04-09T22:03:02.209Z,61660.47
2023-04-09T22:08:04.954Z,61694.25
2023-04-09T22:13:07.992Z,61690.59
2023-04-09T22:18:11.934Z,61654.69
2023-04-09T22:23:14.511Z,61662.47
2023-04-09T22:28:17.127Z,61656.22
2023-04-09T22:33:21.136Z,61682.09
2023-04-09T22:38:23.742Z,61632.72
2023-04-09T22:43:26.424Z,61645.59
2023-04-09T22:48:30.867Z,61642.50
2023-04-09T22:53:33.469Z,61618.63
2023-04-09T22:58:36.356Z,61619.69
2023-04-09T23:03:40.321Z,61639.59
2023-04-09T23:08:42.912Z,61617.38
2023-04-09T23:13:45.740Z,61637.31
2023-04-09T23:18:49.692Z,61663.13
2023-04-09T23:23:52.620Z,61653.47
2023-04-09T23:28:55.697Z,61641.94
2023-04-09T23:33:59.737Z,61640.38
2023-04-09T23:39:02.507Z,61660.06
2023-04-09T23:44:05.370Z,61647.72
2023-04-09T23:49:09.276Z,61656.13
2023-04-09T23:54:11.847Z,61615.13
2023-04-09T23:59:14.417Z,61669.53
